Oran, IA (50664)

8:35 AM CDT on August 30, 2016 (GMT -0500)
Oelwein Municipal | | Change Station

Elev 1076 ft 42.68 °N, 91.97 °W | Updated 20 minutes ago

Overcast
Overcast
68 °F
Feels Like 68 °F
N
5
Wind Variable Wind from South

Today
High -- | Low -- °F
--% Chance of Precip.
Yesterday
High -- | Low -- °F
Precip. -- in
Pressure 30.16 in
Visibility 3.0 miles
Clouds Overcast 14000 ft
Dew Point 68 °F
Humidity 100%
Rainfall 0.00 in
Snow Depth Not available.
6:30 AM 7:44 PM
Waning Crescent, 4% visible
METAR KOLZ 301315Z AUTO 18004KT 3SM BR OVC140 20/20 A3016 RMK AO2
Pressure 30.16 in
Visibility 3.0 miles
Clouds Overcast 14000 ft
Dew Point 68 °F
Humidity 100%
Rainfall 0.00 in
Snow Depth Not available.
6:30 AM 7:44 PM
Waning Crescent, 4% visible
METAR KOLZ 301315Z AUTO 18004KT 3SM BR OVC140 20/20 A3016 RMK AO2

10-Day Weather Forecast

Almanac

Astronomy

Aug. 30, 2016 Rise Set
Actual Time
Civil Twilight
Nautical Twilight
Astronomical Twilight
Moon
Length of Visible Light
Length of Day
Tomorrow will be .
, % of the Moon is Illuminated

Today's Extremes

State Highs State Lows

Community

WunderPhotos

Upload Photos

1,935,831 photos uploaded!

WunderBlog® & News

Nearby

Air Quality

  Air Quality AQ Index Pollutant
Not available.

Snow Depth

Station Depth Elevation

Earthquake Activity

City Distance Mag. Time & Date
Minimum magnitude displayed is 2.5.

Coastal Water Temperatures

Place Temperature

Stations

Nearby Weather Stations

Station Location Temp. Windchill Dew Point Humidity Wind Precip. Elev Updated Type
                   

Watches & Warnings

There are currently no watches in effect.